Time;durP1;ratioP1;P1;durP2;ratioP2;P2;SDS_P1;SDS_P2;PMS_P1;PMS_P2;Temp;Humidity;BMP_temperature;BMP_pressure;BME280_temperature;BME280_humidity;BME280_pressure;Samples;Min_cycle;Max_cycle;Signal;HPM_P1;HPM_P2
2022/01/15 00:02:17;;;;;;;9.45;3.60;;;5.70;90.90;;;;;;5051255;28;20029;-64
2022/01/15 00:04:43;;;;;;;10.13;3.30;;;5.60;91.10;;;;;;5055764;28;20064;-64
2022/01/15 00:07:09;;;;;;;14.10;3.65;;;5.60;91.20;;;;;;5051222;28;20032;-64
2022/01/15 00:09:35;;;;;;;6.45;2.38;;;5.60;91.20;;;;;;5051350;28;20072;-63
2022/01/15 00:12:01;;;;;;;7.15;2.13;;;5.60;91.50;;;;;;5057505;28;20090;-64
2022/01/15 00:14:33;;;;;;;13.55;2.35;;;5.60;91.90;;;;;;5047529;28;20036;-64
2022/01/15 00:17:07;;;;;;;5.72;1.65;;;5.60;92.10;;;;;;5055904;28;20408;-64
2022/01/15 00:19:43;;;;;;;10.85;2.00;;;5.70;92.10;;;;;;5052244;28;20099;-65
2022/01/15 00:22:09;;;;;;;8.98;1.80;;;5.70;92.10;;;;;;5055523;28;20032;-64
2022/01/15 00:24:35;;;;;;;9.93;2.22;;;5.60;92.10;;;;;;5047989;28;20201;-64
2022/01/15 00:27:00;;;;;;;8.98;1.63;;;5.60;92.00;;;;;;5054227;28;20779;-63
2022/01/15 00:29:29;;;;;;;10.15;1.63;;;5.50;91.90;;;;;;5054424;28;20025;-61
2022/01/15 00:31:55;;;;;;;7.35;2.03;;;5.50;91.70;;;;;;5053046;28;20206;-63
2022/01/15 00:34:21;;;;;;;4.78;1.20;;;5.50;91.70;;;;;;5051420;28;20145;-63
2022/01/15 00:36:46;;;;;;;2.60;0.90;;;5.40;91.70;;;;;;5054180;28;20020;-62
2022/01/15 00:39:12;;;;;;;8.80;1.60;;;5.40;91.90;;;;;;5054120;28;20029;-66
2022/01/15 00:41:38;;;;;;;6.28;1.63;;;5.30;92.00;;;;;;5049950;28;20025;-64
2022/01/15 00:44:03;;;;;;;9.05;1.95;;;5.30;92.00;;;;;;5053609;28;20484;-64
2022/01/15 00:46:29;;;;;;;6.28;1.38;;;5.30;92.00;;;;;;5051240;28;20052;-63
2022/01/15 00:48:55;;;;;;;5.78;1.38;;;5.30;92.00;;;;;;5041187;28;20040;-63
2022/01/15 00:51:20;;;;;;;4.75;1.30;;;5.30;92.00;;;;;;5066455;28;20029;-63
2022/01/15 00:53:46;;;;;;;8.75;1.88;;;5.30;92.00;;;;;;5059360;28;20466;-63
2022/01/15 00:56:12;;;;;;;6.50;1.85;;;5.30;92.20;;;;;;5054915;28;20648;-63
2022/01/15 00:58:37;;;;;;;12.00;1.85;;;5.20;92.30;;;;;;5061091;28;20099;-63
2022/01/15 01:01:03;;;;;;;6.65;2.33;;;5.20;92.30;;;;;;5054718;28;20020;-64
2022/01/15 01:03:29;;;;;;;9.25;1.70;;;5.10;92.10;;;;;;5051237;28;20554;-64
2022/01/15 01:05:58;;;;;;;9.30;1.80;;;5.10;91.90;;;;;;5060295;28;20472;-62
2022/01/15 01:08:24;;;;;;;10.88;1.98;;;5.00;91.90;;;;;;5055271;28;20182;-64
2022/01/15 01:10:58;;;;;;;9.88;1.85;;;5.00;91.90;;;;;;5045784;28;20059;-64
2022/01/15 01:13:41;;;;;;;9.57;1.95;;;4.90;91.80;;;;;;5056533;28;20075;-63
2022/01/15 01:24:21;;;;;;;4.32;1.50;;;4.60;92.10;;;;;;5055530;28;20509;-66
2022/01/15 01:27:00;;;;;;;6.53;1.42;;;4.40;92.30;;;;;;5056788;28;20115;-63
2022/01/15 01:32:14;;;;;;;6.57;1.60;;;4.30;92.60;;;;;;5054718;28;20036;-63
2022/01/15 01:34:42;;;;;;;8.02;1.88;;;4.30;92.70;;;;;;5053987;28;20097;-63
2022/01/15 01:37:19;;;;;;;6.53;1.50;;;4.30;93.10;;;;;;5054295;28;20028;-63
2022/01/15 01:39:49;;;;;;;12.35;2.08;;;4.20;92.80;;;;;;5057706;28;20055;-63
2022/01/15 01:45:12;;;;;;;7.47;1.50;;;4.10;92.80;;;;;;5056340;28;20079;-63
2022/01/15 01:47:41;;;;;;;8.23;1.55;;;4.10;92.90;;;;;;5050706;28;20744;-63
2022/01/15 01:50:22;;;;;;;7.22;1.83;;;4.00;93.10;;;;;;5048989;28;20025;-63
2022/01/15 01:52:50;;;;;;;5.10;1.75;;;4.00;93.10;;;;;;5060694;28;20101;-63
2022/01/15 01:55:18;;;;;;;15.43;2.50;;;4.00;92.90;;;;;;5050538;28;20120;-63
2022/01/15 01:57:45;;;;;;;12.52;2.10;;;4.00;92.90;;;;;;5050432;28;20373;-63
2022/01/15 02:00:13;;;;;;;11.10;2.40;;;4.00;92.60;;;;;;5050962;28;20044;-63
2022/01/15 02:02:49;;;;;;;6.30;1.83;;;4.00;92.60;;;;;;5062954;28;20777;-63
2022/01/15 02:05:16;;;;;;;4.40;1.30;;;3.90;92.70;;;;;;5055996;28;20029;-63
2022/01/15 02:07:45;;;;;;;6.95;1.20;;;3.90;92.80;;;;;;5058011;28;20633;-63
2022/01/15 02:10:14;;;;;;;10.95;1.98;;;3.80;92.90;;;;;;5052826;28;20787;-63
2022/01/15 02:12:41;;;;;;;9.35;2.33;;;3.80;93.00;;;;;;5064029;28;20028;-63
2022/01/15 02:15:09;;;;;;;12.45;1.55;;;3.80;93.10;;;;;;5057091;28;20040;-63
2022/01/15 02:17:35;;;;;;;7.75;2.38;;;3.80;93.00;;;;;;5051861;28;20029;-63
2022/01/15 02:25:45;;;;;;;11.75;1.83;;;3.70;93.10;;;;;;5052774;28;20041;-63
2022/01/15 02:28:11;;;;;;;5.15;1.35;;;3.60;93.00;;;;;;5052623;28;20032;-63
2022/01/15 02:30:38;;;;;;;5.45;1.65;;;3.60;93.10;;;;;;5058856;28;20029;-63
2022/01/15 02:33:05;;;;;;;7.22;2.70;;;3.60;93.10;;;;;;5058411;28;20025;-63
2022/01/15 02:35:31;;;;;;;8.82;1.80;;;3.50;92.90;;;;;;5062859;28;20108;-63
2022/01/15 02:38:07;;;;;;;10.38;2.10;;;3.50;92.80;;;;;;5046365;28;20056;-63
2022/01/15 02:40:35;;;;;;;9.32;1.60;;;3.40;92.80;;;;;;5054866;28;20055;-63
2022/01/15 02:43:06;;;;;;;7.20;1.73;;;3.40;93.00;;;;;;5055767;28;20119;-63
2022/01/15 02:45:34;;;;;;;11.20;2.20;;;3.40;93.20;;;;;;5056567;28;20094;-63
2022/01/15 02:48:18;;;;;;;6.53;1.77;;;3.40;93.30;;;;;;5052331;28;20432;-63
2022/01/15 02:50:45;;;;;;;6.10;1.50;;;3.40;93.30;;;;;;5055069;28;20047;-63
2022/01/15 02:53:13;;;;;;;6.90;1.70;;;3.30;93.20;;;;;;5055987;28;20024;-63
2022/01/15 02:55:44;;;;;;;8.73;1.90;;;3.30;93.30;;;;;;5053624;28;20060;-63
2022/01/15 02:58:10;;;;;;;5.45;1.88;;;3.30;93.40;;;;;;5050266;28;20045;-65
2022/01/15 03:00:36;;;;;;;9.07;1.75;;;3.30;93.30;;;;;;5064765;28;20113;-63
2022/01/15 03:03:02;;;;;;;5.55;1.50;;;3.30;93.30;;;;;;5055201;28;20700;-63
2022/01/15 03:05:28;;;;;;;7.93;2.13;;;3.30;93.20;;;;;;5052052;28;20033;-63
2022/01/15 03:07:53;;;;;;;7.30;2.13;;;3.20;93.20;;;;;;5058822;28;20106;-63
2022/01/15 03:10:19;;;;;;;11.18;1.98;;;3.20;93.20;;;;;;5052241;28;20131;-65
2022/01/15 03:12:45;;;;;;;9.90;1.85;;;3.20;93.30;;;;;;5057201;28;20107;-63
2022/01/15 03:15:17;;;;;;;6.82;1.48;;;3.10;93.70;;;;;;5062782;28;20060;-63
2022/01/15 03:17:43;;;;;;;5.38;1.50;;;3.10;93.50;;;;;;5052520;28;20067;-63
2022/01/15 03:20:09;;;;;;;14.55;2.42;;;3.20;93.50;;;;;;5055470;28;20129;-63
2022/01/15 03:22:35;;;;;;;9.68;2.00;;;3.20;93.50;;;;;;5053250;28;20048;-63
2022/01/15 03:25:00;;;;;;;10.20;2.00;;;3.10;93.40;;;;;;5060922;28;20028;-64
2022/01/15 03:27:26;;;;;;;11.40;2.17;;;3.10;93.40;;;;;;5059558;28;20029;-63
2022/01/15 03:29:52;;;;;;;7.28;2.30;;;3.10;93.40;;;;;;5061684;28;20031;-63
2022/01/15 03:32:19;;;;;;;9.00;2.20;;;3.10;93.30;;;;;;5056631;28;20032;-63
2022/01/15 03:34:45;;;;;;;10.43;1.80;;;3.10;93.30;;;;;;5064272;28;20032;-63
2022/01/15 03:37:11;;;;;;;7.10;1.92;;;3.10;93.20;;;;;;5069539;28;20131;-63
2022/01/15 03:39:38;;;;;;;8.65;2.08;;;3.10;93.10;;;;;;5063665;28;20099;-62
2022/01/15 03:42:11;;;;;;;5.20;1.85;;;3.00;93.10;;;;;;5062184;28;20739;-63
2022/01/15 03:44:41;;;;;;;15.75;2.70;;;3.00;93.10;;;;;;5057509;28;20032;-63
2022/01/15 03:47:07;;;;;;;8.43;1.90;;;3.00;93.10;;;;;;5057054;28;20064;-63
2022/01/15 03:49:33;;;;;;;6.60;2.15;;;3.00;93.20;;;;;;5054638;28;20624;-63
2022/01/15 03:51:59;;;;;;;4.80;2.17;;;3.00;93.20;;;;;;5053981;28;20046;-63
2022/01/15 03:54:24;;;;;;;9.52;2.70;;;3.00;93.30;;;;;;5058601;28;20035;-63
2022/01/15 03:56:50;;;;;;;5.93;1.90;;;2.90;93.30;;;;;;5063726;28;20036;-63
2022/01/15 03:59:17;;;;;;;8.82;2.45;;;2.90;93.40;;;;;;5059802;28;20036;-63
2022/01/15 04:01:42;;;;;;;6.95;2.03;;;2.90;93.30;;;;;;5058501;28;20571;-63
2022/01/15 04:04:08;;;;;;;7.05;2.08;;;2.80;93.30;;;;;;5053078;28;20037;-63
2022/01/15 04:06:34;;;;;;;9.68;2.33;;;2.80;93.30;;;;;;5058349;28;20043;-63
2022/01/15 04:08:59;;;;;;;11.43;2.42;;;2.80;93.30;;;;;;5062714;28;20025;-63
2022/01/15 04:11:25;;;;;;;7.38;2.35;;;2.90;93.20;;;;;;5054793;28;20154;-63
2022/01/15 04:13:51;;;;;;;9.35;2.72;;;2.80;93.10;;;;;;5066591;28;20086;-63
2022/01/15 04:16:17;;;;;;;6.38;2.45;;;2.80;93.10;;;;;;5074552;28;20021;-63
2022/01/15 04:18:42;;;;;;;12.60;2.55;;;2.80;93.20;;;;;;5057144;28;20724;-63
2022/01/15 04:21:12;;;;;;;7.22;2.17;;;2.80;93.40;;;;;;5059236;28;20031;-63
2022/01/15 04:23:38;;;;;;;11.75;2.35;;;2.80;93.50;;;;;;5059281;28;20024;-63
2022/01/15 04:26:04;;;;;;;15.18;2.97;;;2.80;93.60;;;;;;5059140;28;20665;-63
2022/01/15 04:28:32;;;;;;;7.25;2.30;;;2.80;93.70;;;;;;5056948;28;20493;-63
2022/01/15 04:31:04;;;;;;;10.20;3.28;;;2.80;93.80;;;;;;5055786;28;20039;-63
2022/01/15 04:33:33;;;;;;;11.00;2.80;;;2.90;93.80;;;;;;5056509;28;20029;-63
2022/01/15 04:35:59;;;;;;;8.52;2.22;;;2.90;93.80;;;;;;5061583;28;20027;-63
2022/01/15 04:38:25;;;;;;;9.07;2.03;;;2.90;93.70;;;;;;5061608;28;20401;-63
2022/01/15 04:40:50;;;;;;;7.43;2.47;;;2.90;93.80;;;;;;5058733;28;20024;-63
2022/01/15 04:43:16;;;;;;;6.78;2.30;;;2.90;93.80;;;;;;5060848;28;20389;-63
2022/01/15 04:45:42;;;;;;;9.32;2.40;;;3.00;93.70;;;;;;5062389;28;20042;-63
2022/01/15 04:48:08;;;;;;;13.63;2.45;;;3.00;93.80;;;;;;5055160;28;20024;-63
2022/01/15 04:50:33;;;;;;;14.80;3.35;;;3.00;93.80;;;;;;5060525;28;20504;-63
2022/01/15 04:52:59;;;;;;;12.93;2.72;;;3.00;93.80;;;;;;5061777;28;20044;-63
2022/01/15 04:55:25;;;;;;;12.18;2.65;;;3.00;93.80;;;;;;5059168;28;20131;-63
2022/01/15 04:57:50;;;;;;;12.40;2.72;;;3.10;93.80;;;;;;5057070;28;20036;-63
2022/01/15 05:00:18;;;;;;;17.05;3.05;;;3.10;93.80;;;;;;5052229;28;20033;-63
2022/01/15 05:02:44;;;;;;;12.80;2.78;;;3.10;93.80;;;;;;5055771;28;20021;-63
2022/01/15 05:05:11;;;;;;;15.60;3.80;;;3.20;93.90;;;;;;5059992;28;20059;-63
2022/01/15 05:07:36;;;;;;;10.63;3.38;;;3.20;93.90;;;;;;5063603;28;20025;-63
2022/01/15 05:10:05;;;;;;;14.77;4.05;;;3.30;93.90;;;;;;5063923;28;20033;-63
2022/01/15 05:12:41;;;;;;;14.10;4.28;;;3.30;93.80;;;;;;5056228;28;20039;-63
2022/01/15 05:15:08;;;;;;;13.02;4.05;;;3.40;93.90;;;;;;5043976;28;20104;-63
2022/01/15 05:17:34;;;;;;;9.18;3.10;;;3.40;93.80;;;;;;5062999;28;20029;-63
2022/01/15 05:19:59;;;;;;;12.60;3.90;;;3.50;93.70;;;;;;5064269;28;20024;-63
2022/01/15 05:22:25;;;;;;;15.27;4.00;;;3.50;93.60;;;;;;5058548;28;20033;-63
2022/01/15 05:24:51;;;;;;;11.38;3.50;;;3.50;93.60;;;;;;5056388;28;20075;-63
2022/01/15 05:27:16;;;;;;;10.35;3.90;;;3.60;93.60;;;;;;5051268;28;20077;-64
2022/01/15 05:29:44;;;;;;;7.93;4.10;;;3.60;93.60;;;;;;5060377;28;20560;-63
2022/01/15 05:32:09;;;;;;;6.93;3.90;;;3.60;93.50;;;;;;5056846;28;20032;-63
2022/01/15 05:34:35;;;;;;;9.25;3.45;;;3.60;93.30;;;;;;5058156;28;20233;-63
2022/01/15 05:37:01;;;;;;;8.98;3.60;;;3.70;93.40;;;;;;5057393;28;20135;-63
2022/01/15 05:39:28;;;;;;;8.75;3.50;;;3.70;93.30;;;;;;5052036;28;20148;-63
2022/01/15 05:41:53;;;;;;;9.38;4.55;;;3.70;93.30;;;;;;5051635;28;20035;-63
2022/01/15 05:44:19;;;;;;;9.45;4.00;;;3.70;93.30;;;;;;5054620;28;20036;-63
2022/01/15 05:46:45;;;;;;;12.45;4.15;;;3.70;93.20;;;;;;5059419;28;20059;-63
2022/01/15 05:49:11;;;;;;;7.60;3.20;;;3.70;93.10;;;;;;5054813;28;20033;-63
2022/01/15 05:51:37;;;;;;;9.25;3.58;;;3.80;93.20;;;;;;5049424;28;20056;-63
2022/01/15 05:54:10;;;;;;;5.53;2.72;;;3.80;93.00;;;;;;5051280;28;20031;-66
2022/01/15 05:56:37;;;;;;;9.00;3.25;;;3.80;93.00;;;;;;5056231;28;20637;-64
2022/01/15 05:59:04;;;;;;;9.93;3.65;;;3.80;93.00;;;;;;5060620;28;20032;-65
2022/01/15 06:01:29;;;;;;;13.38;3.60;;;3.80;93.00;;;;;;5056374;28;20045;-65
2022/01/15 06:03:55;;;;;;;12.90;4.53;;;3.80;93.00;;;;;;5059564;28;20031;-65
2022/01/15 06:06:21;;;;;;;10.32;3.97;;;3.80;93.10;;;;;;5053806;28;20091;-65
2022/01/15 06:08:47;;;;;;;12.13;3.67;;;3.80;93.00;;;;;;5059448;28;20465;-65
2022/01/15 06:11:17;;;;;;;13.38;5.28;;;3.80;93.10;;;;;;5049523;28;20029;-65
2022/01/15 06:13:47;;;;;;;13.25;4.90;;;3.80;92.90;;;;;;5056558;28;20021;-66
2022/01/15 06:16:13;;;;;;;12.57;4.68;;;3.80;92.90;;;;;;5058035;28;20028;-66
2022/01/15 06:18:39;;;;;;;12.40;4.35;;;3.80;92.90;;;;;;5056685;28;20123;-65
2022/01/15 06:21:05;;;;;;;9.90;4.10;;;3.80;92.80;;;;;;5053995;28;20666;-65
2022/01/15 06:23:30;;;;;;;14.93;4.82;;;3.90;92.90;;;;;;5052229;28;20841;-66
2022/01/15 06:25:56;;;;;;;13.40;4.30;;;3.90;93.00;;;;;;5055524;28;20543;-65
2022/01/15 06:28:22;;;;;;;12.25;4.78;;;3.90;92.90;;;;;;5061678;28;20040;-65
2022/01/15 06:30:48;;;;;;;10.80;5.18;;;3.90;92.90;;;;;;5051673;28;20028;-63
2022/01/15 06:33:14;;;;;;;16.17;5.28;;;3.90;92.80;;;;;;5058970;28;20024;-65
2022/01/15 06:35:41;;;;;;;13.02;6.40;;;3.90;92.80;;;;;;5057640;28;20032;-66
2022/01/15 06:38:06;;;;;;;12.23;6.35;;;4.00;92.70;;;;;;5051016;28;20029;-65
2022/01/15 06:40:32;;;;;;;12.88;5.05;;;4.00;92.70;;;;;;5059232;28;20544;-65
2022/01/15 06:43:00;;;;;;;21.95;10.43;;;4.00;92.70;;;;;;5058817;28;20067;-65
2022/01/15 06:45:27;;;;;;;21.90;10.18;;;4.00;92.60;;;;;;5055278;28;20148;-65
2022/01/15 06:47:52;;;;;;;14.93;6.07;;;4.00;92.60;;;;;;5058391;28;20028;-66
2022/01/15 06:50:20;;;;;;;12.55;4.38;;;4.00;92.60;;;;;;5053688;28;20123;-65
2022/01/15 06:52:45;;;;;;;13.35;4.53;;;4.00;92.60;;;;;;5056355;28;20040;-65
2022/01/15 06:55:11;;;;;;;11.48;4.43;;;4.00;92.40;;;;;;5056081;28;20029;-65
2022/01/15 06:57:37;;;;;;;12.00;4.57;;;4.00;92.40;;;;;;5057425;28;20470;-65
2022/01/15 07:00:06;;;;;;;23.58;9.25;;;4.00;92.20;;;;;;5055550;28;20037;-65
2022/01/15 07:02:32;;;;;;;24.75;8.68;;;4.00;92.30;;;;;;5053322;28;20032;-65
2022/01/15 07:04:58;;;;;;;14.68;6.38;;;4.00;92.50;;;;;;5050767;28;20429;-65
2022/01/15 07:07:23;;;;;;;18.95;8.40;;;4.00;92.40;;;;;;5048773;28;20117;-65
2022/01/15 07:09:49;;;;;;;14.95;6.53;;;4.00;92.30;;;;;;5064477;28;20043;-65
2022/01/15 07:12:15;;;;;;;21.05;9.52;;;3.90;92.40;;;;;;5056124;28;20021;-65
2022/01/15 07:14:40;;;;;;;25.38;9.82;;;4.00;92.20;;;;;;5061928;28;20032;-65
2022/01/15 07:17:06;;;;;;;20.38;7.20;;;4.00;92.10;;;;;;5058194;28;20120;-65
2022/01/15 07:19:32;;;;;;;13.80;6.28;;;3.90;92.10;;;;;;5055693;28;20029;-65
2022/01/15 07:21:59;;;;;;;16.40;6.45;;;3.90;92.10;;;;;;5056320;28;20036;-65
2022/01/15 07:24:24;;;;;;;14.65;6.28;;;3.90;92.30;;;;;;5062473;28;20036;-65
2022/01/15 07:26:51;;;;;;;12.93;6.28;;;3.90;92.40;;;;;;5064100;28;20039;-64
2022/01/15 07:29:17;;;;;;;12.05;5.18;;;3.90;92.40;;;;;;5062601;28;20029;-65
2022/01/15 07:31:45;;;;;;;12.63;4.97;;;3.90;92.70;;;;;;5064649;28;20050;-65
2022/01/15 07:34:12;;;;;;;8.80;4.20;;;3.90;92.60;;;;;;5056069;28;20036;-65
2022/01/15 07:36:38;;;;;;;15.73;5.43;;;3.90;92.60;;;;;;5059803;28;20016;-65
2022/01/15 07:39:05;;;;;;;13.95;5.30;;;3.90;92.70;;;;;;5064149;28;20044;-65
2022/01/15 07:41:32;;;;;;;10.98;4.95;;;3.90;92.50;;;;;;5067690;28;20048;-63
2022/01/15 07:44:02;;;;;;;10.63;4.40;;;3.90;92.30;;;;;;5064266;28;20021;-63
2022/01/15 07:46:28;;;;;;;12.77;4.75;;;3.90;92.30;;;;;;5059891;28;20029;-63
2022/01/15 07:48:53;;;;;;;10.98;4.40;;;3.90;92.30;;;;;;5066279;28;20481;-63
2022/01/15 07:51:19;;;;;;;16.90;4.65;;;3.90;92.30;;;;;;5055361;28;20251;-63
2022/01/15 07:53:45;;;;;;;14.52;5.88;;;3.90;92.30;;;;;;5055922;28;20032;-63
2022/01/15 07:56:11;;;;;;;13.00;6.63;;;3.90;92.40;;;;;;5062376;28;20033;-63
2022/01/15 07:58:36;;;;;;;17.08;7.93;;;3.90;92.30;;;;;;5057348;28;20107;-63
2022/01/15 08:01:02;;;;;;;13.45;6.90;;;4.00;92.30;;;;;;5055110;28;20024;-63
2022/01/15 08:03:28;;;;;;;13.48;6.05;;;4.00;92.10;;;;;;5053846;28;20021;-63
2022/01/15 08:05:54;;;;;;;16.52;6.97;;;4.00;92.10;;;;;;5061636;28;20442;-63
2022/01/15 08:08:19;;;;;;;20.63;8.93;;;4.00;92.20;;;;;;5059809;28;20079;-63
2022/01/15 08:10:45;;;;;;;13.30;7.57;;;4.00;92.30;;;;;;5064483;28;20036;-63
2022/01/15 08:13:11;;;;;;;16.98;6.30;;;4.10;92.20;;;;;;5063626;28;20083;-63
2022/01/15 08:15:37;;;;;;;11.95;6.28;;;4.00;92.10;;;;;;5056651;28;20031;-64
2022/01/15 08:18:04;;;;;;;16.55;6.78;;;4.00;92.00;;;;;;5056219;28;20032;-63
2022/01/15 08:20:30;;;;;;;19.70;8.85;;;4.10;91.90;;;;;;5061584;28;20355;-63
2022/01/15 08:22:56;;;;;;;28.17;11.13;;;4.00;91.90;;;;;;5062173;28;20043;-63
2022/01/15 08:25:24;;;;;;;24.50;12.20;;;4.10;92.00;;;;;;5057465;28;20520;-63
2022/01/15 08:27:50;;;;;;;20.15;7.88;;;4.10;92.00;;;;;;5058621;28;20039;-63
2022/01/15 08:30:16;;;;;;;18.23;7.68;;;4.10;92.00;;;;;;5056996;28;20043;-65
2022/01/15 08:32:43;;;;;;;11.32;6.28;;;4.20;92.00;;;;;;5057770;28;20021;-63
2022/01/15 08:35:09;;;;;;;18.90;8.32;;;4.20;91.70;;;;;;5062292;28;20101;-65
2022/01/15 08:37:38;;;;;;;22.90;9.27;;;4.20;91.30;;;;;;5043248;28;20559;-63
2022/01/15 08:40:06;;;;;;;17.75;6.60;;;4.20;91.20;;;;;;5055637;28;20033;-63
2022/01/15 08:42:32;;;;;;;17.10;6.55;;;4.20;91.10;;;;;;5060225;28;20511;-64
2022/01/15 08:44:57;;;;;;;15.70;6.20;;;4.20;91.40;;;;;;5053552;28;20025;-64
2022/01/15 08:47:23;;;;;;;27.58;8.45;;;4.20;91.30;;;;;;5061252;28;20067;-64
2022/01/15 08:49:49;;;;;;;19.85;7.72;;;4.20;91.20;;;;;;5054118;28;20754;-64
2022/01/15 08:52:16;;;;;;;14.25;5.55;;;4.30;91.30;;;;;;5047871;28;20025;-64
2022/01/15 08:54:43;;;;;;;15.70;6.10;;;4.30;91.40;;;;;;5027854;28;20031;-64
2022/01/15 08:57:09;;;;;;;13.43;5.53;;;4.30;91.30;;;;;;5047092;28;20024;-63
2022/01/15 08:59:35;;;;;;;16.35;5.07;;;4.30;91.30;;;;;;5056572;28;20082;-63
2022/01/15 09:02:00;;;;;;;16.58;4.95;;;4.40;91.10;;;;;;5059352;28;20101;-64
2022/01/15 09:04:27;;;;;;;18.83;5.97;;;4.40;91.30;;;;;;5062518;28;20047;-64
2022/01/15 09:06:53;;;;;;;20.08;5.75;;;4.40;91.20;;;;;;5063760;28;20036;-64
2022/01/15 09:09:19;;;;;;;17.63;5.45;;;4.40;90.90;;;;;;5050178;28;20496;-65
2022/01/15 09:11:45;;;;;;;34.10;10.50;;;4.50;90.90;;;;;;5047237;28;20028;-64
2022/01/15 09:14:12;;;;;;;20.60;7.70;;;4.50;90.20;;;;;;5066361;28;20032;-65
2022/01/15 09:16:38;;;;;;;21.42;8.35;;;4.50;90.70;;;;;;5052108;28;20016;-65
2022/01/15 09:19:04;;;;;;;18.48;5.10;;;4.60;90.70;;;;;;5054826;28;20039;-65
2022/01/15 09:21:30;;;;;;;33.22;11.63;;;4.60;90.40;;;;;;5050522;28;20029;-65
2022/01/15 09:23:56;;;;;;;42.92;12.95;;;4.70;90.10;;;;;;5065958;28;20089;-65
2022/01/15 09:26:45;;;;;;;26.38;9.23;;;4.80;89.80;;;;;;5068605;28;20076;-65
2022/01/15 09:31:53;;;;;;;20.73;7.13;;;4.80;89.90;;;;;;5050119;28;20476;-66
2022/01/15 09:34:19;;;;;;;22.58;7.28;;;4.90;89.40;;;;;;5047560;28;20048;-65
2022/01/15 09:36:44;;;;;;;24.42;7.55;;;5.10;89.70;;;;;;5051029;28;20103;-64
2022/01/15 09:39:10;;;;;;;19.30;5.57;;;5.20;89.40;;;;;;5047169;28;20267;-65
2022/01/15 09:41:41;;;;;;;18.10;6.53;;;5.50;89.80;;;;;;5070839;28;20505;-64
2022/01/15 09:44:07;;;;;;;21.25;7.50;;;5.80;88.20;;;;;;5051634;28;20111;-64
2022/01/15 09:46:33;;;;;;;31.33;13.18;;;6.10;88.00;;;;;;5056938;28;20190;-64
2022/01/15 09:49:01;;;;;;;22.88;9.98;;;6.50;84.90;;;;;;5066752;28;20055;-63
2022/01/15 09:51:29;;;;;;;18.48;8.68;;;7.10;82.30;;;;;;5056070;28;20029;-64
2022/01/15 09:53:56;;;;;;;28.23;8.70;;;7.60;79.70;;;;;;5050757;28;20048;-65
2022/01/15 09:56:22;;;;;;;44.00;16.10;;;8.20;79.00;;;;;;5058850;28;20103;-65
2022/01/15 09:58:48;;;;;;;31.65;10.00;;;8.70;74.60;;;;;;5053300;28;20047;-66
2022/01/15 10:01:13;;;;;;;16.60;6.25;;;9.20;73.00;;;;;;5049963;28;20048;-64
2022/01/15 10:03:39;;;;;;;19.23;6.15;;;9.70;69.40;;;;;;5048268;28;20799;-64
2022/01/15 10:06:05;;;;;;;13.40;5.50;;;10.20;69.20;;;;;;5046823;28;20028;-65
2022/01/15 10:08:31;;;;;;;19.65;5.43;;;10.50;65.60;;;;;;5049889;28;20079;-65
2022/01/15 10:10:59;;;;;;;14.88;5.03;;;10.60;64.60;;;;;;5052286;28;20108;-65
2022/01/15 10:13:28;;;;;;;17.30;4.85;;;10.70;65.50;;;;;;5051769;28;20032;-63
2022/01/15 10:16:00;;;;;;;19.15;4.88;;;10.90;65.40;;;;;;5051820;28;20038;-62
2022/01/15 10:18:31;;;;;;;34.15;11.98;;;11.10;63.50;;;;;;5052238;28;20041;-65
2022/01/15 10:21:14;;;;;;;18.73;6.00;;;10.90;63.70;;;;;;5059885;28;20043;-66
2022/01/15 10:23:54;;;;;;;66.43;18.40;;;11.00;63.50;;;;;;5055877;28;20073;-67
2022/01/15 10:26:26;;;;;;;28.65;8.55;;;11.10;64.20;;;;;;5060570;28;20032;-66
2022/01/15 10:28:57;;;;;;;21.35;6.78;;;11.10;63.40;;;;;;5057147;28;20032;-66
2022/01/15 10:31:25;;;;;;;17.52;5.80;;;11.50;62.60;;;;;;5048084;28;20696;-66
2022/01/15 10:33:51;;;;;;;20.15;5.93;;;11.70;60.90;;;;;;5053206;28;20031;-65
2022/01/15 10:36:29;;;;;;;19.27;6.65;;;11.40;60.20;;;;;;5055529;28;20070;-67
2022/01/15 10:39:15;;;;;;;29.52;11.13;;;11.40;61.60;;;;;;5051111;28;20111;-64
2022/01/15 10:41:41;;;;;;;33.33;10.07;;;11.40;61.00;;;;;;5051931;28;20030;-65
2022/01/15 10:44:45;;;;;;;29.77;12.40;;;11.30;60.60;;;;;;5048970;28;20091;-66
2022/01/15 10:47:13;;;;;;;17.00;5.80;;;11.10;62.20;;;;;;5044846;28;20567;-64
2022/01/15 10:49:41;;;;;;;14.85;3.70;;;10.60;63.20;;;;;;5072162;28;20020;-65
2022/01/15 10:52:33;;;;;;;13.90;4.28;;;10.30;63.90;;;;;;5048752;28;20021;-65
2022/01/15 10:55:09;;;;;;;11.85;3.90;;;9.90;66.00;;;;;;5058300;28;20052;-65
2022/01/15 10:57:58;;;;;;;17.65;4.20;;;9.50;67.40;;;;;;5050091;28;20028;-65
2022/01/15 11:00:38;;;;;;;13.10;3.85;;;9.20;69.30;;;;;;5052075;28;20040;-66
2022/01/15 11:03:16;;;;;;;51.85;22.25;;;9.10;70.40;;;;;;5046417;28;20740;-65
2022/01/15 11:05:44;;;;;;;17.58;4.80;;;8.90;70.90;;;;;;5052614;28;20032;-65
2022/01/15 11:08:19;;;;;;;17.88;4.57;;;8.80;71.20;;;;;;5063313;28;20029;-66
2022/01/15 11:10:46;;;;;;;10.13;3.38;;;8.60;70.30;;;;;;5051478;28;20125;-66
2022/01/15 11:13:15;;;;;;;21.30;5.20;;;8.40;72.40;;;;;;5052664;28;20074;-66
2022/01/15 11:15:51;;;;;;;14.45;3.42;;;8.30;72.40;;;;;;5060532;28;20028;-66
2022/01/15 11:18:34;;;;;;;13.73;4.47;;;8.30;72.50;;;;;;5051924;28;20063;-67
2022/01/15 11:21:03;;;;;;;11.30;3.30;;;8.30;73.50;;;;;;5061445;28;20396;-66
2022/01/15 11:23:30;;;;;;;14.23;3.17;;;8.40;73.60;;;;;;5048239;28;20723;-64
2022/01/15 11:26:00;;;;;;;17.48;3.55;;;8.60;72.50;;;;;;5055642;28;20044;-64
2022/01/15 11:28:28;;;;;;;21.00;4.28;;;8.60;72.70;;;;;;5048251;28;20138;-63
2022/01/15 11:30:58;;;;;;;15.40;4.20;;;8.50;71.70;;;;;;5047206;28;20075;-63
2022/01/15 11:33:28;;;;;;;19.13;4.20;;;8.50;73.90;;;;;;5043025;28;20795;-65
2022/01/15 11:35:54;;;;;;;18.98;3.95;;;8.50;72.50;;;;;;5067941;28;20043;-64
2022/01/15 11:38:46;;;;;;;20.60;5.35;;;8.40;72.10;;;;;;5046215;28;20037;-65
2022/01/15 11:41:27;;;;;;;15.50;5.00;;;8.20;74.10;;;;;;5045027;28;20123;-63
2022/01/15 11:44:01;;;;;;;18.52;3.33;;;8.00;75.00;;;;;;5048366;28;21068;-67
2022/01/15 11:46:26;;;;;;;18.10;3.15;;;8.00;77.10;;;;;;5055838;28;20048;-64
2022/01/15 11:49:49;;;;;;;17.63;3.35;;;8.20;75.30;;;;;;5048079;28;20036;-64
2022/01/15 11:52:15;;;;;;;20.90;3.10;;;8.30;74.60;;;;;;5033899;28;20032;-62
2022/01/15 11:54:59;;;;;;;15.63;3.35;;;8.30;75.00;;;;;;5049919;28;20094;-62
2022/01/15 11:57:36;;;;;;;16.70;3.35;;;8.30;74.10;;;;;;5049755;28;20663;-63
2022/01/15 12:00:15;;;;;;;19.08;3.95;;;8.40;75.20;;;;;;5051188;28;20029;-63
2022/01/15 12:02:41;;;;;;;13.73;4.80;;;8.30;73.90;;;;;;5073011;28;20037;-66
2022/01/15 12:05:27;;;;;;;16.35;4.43;;;8.30;73.50;;;;;;5052265;28;20675;-62
2022/01/15 12:07:59;;;;;;;16.33;3.43;;;8.20;75.10;;;;;;5056718;28;20036;-64
2022/01/15 12:10:40;;;;;;;17.10;3.83;;;8.20;74.60;;;;;;5049537;28;20298;-64
2022/01/15 12:13:15;;;;;;;18.38;3.88;;;8.20;75.40;;;;;;5054510;28;20095;-62
2022/01/15 12:15:41;;;;;;;20.17;4.38;;;8.40;75.00;;;;;;5052248;28;20024;-64
2022/01/15 12:18:21;;;;;;;21.88;4.78;;;8.40;74.00;;;;;;5056891;28;20017;-63
2022/01/15 12:20:49;;;;;;;16.75;3.05;;;8.30;74.80;;;;;;5049837;28;20036;-63
2022/01/15 12:23:18;;;;;;;22.02;5.88;;;8.30;74.20;;;;;;5053397;28;20072;-63
2022/01/15 12:25:45;;;;;;;28.23;7.20;;;8.30;74.60;;;;;;5061805;28;20095;-63
2022/01/15 12:28:14;;;;;;;17.27;3.60;;;8.20;74.80;;;;;;5052838;28;20036;-64
2022/01/15 12:30:42;;;;;;;13.63;3.95;;;8.10;75.20;;;;;;5054494;28;20033;-63
2022/01/15 12:33:13;;;;;;;20.42;4.25;;;8.10;75.70;;;;;;5056789;28;20056;-63
2022/01/15 12:35:45;;;;;;;16.10;2.90;;;8.10;75.40;;;;;;5054900;28;20029;-63
2022/01/15 12:38:15;;;;;;;18.85;3.28;;;8.20;75.90;;;;;;5048748;28;20037;-63
2022/01/15 12:40:51;;;;;;;14.93;3.83;;;8.20;76.10;;;;;;5055235;28;20539;-64
2022/01/15 12:43:24;;;;;;;16.85;3.35;;;8.20;75.90;;;;;;5054204;28;20032;-71
2022/01/15 12:45:56;;;;;;;15.82;3.05;;;8.20;75.30;;;;;;5051598;28;20032;-65
2022/01/15 12:48:25;;;;;;;16.63;3.17;;;8.10;75.50;;;;;;5051735;28;20166;-64
2022/01/15 12:50:53;;;;;;;16.48;3.65;;;8.10;75.60;;;;;;5049828;28;20139;-65
2022/01/15 12:53:22;;;;;;;15.68;3.17;;;8.10;75.30;;;;;;5052412;28;20109;-63
2022/01/15 12:55:49;;;;;;;14.02;2.80;;;8.10;75.40;;;;;;5049985;28;20033;-67
2022/01/15 12:58:20;;;;;;;21.85;4.95;;;8.20;75.00;;;;;;5054174;28;20065;-67
2022/01/15 13:00:46;;;;;;;14.63;2.78;;;8.10;74.50;;;;;;5051978;28;20082;-68
2022/01/15 13:03:14;;;;;;;14.32;2.80;;;8.00;74.60;;;;;;5053176;28;20024;-69
2022/01/15 13:05:42;;;;;;;12.02;2.58;;;8.00;74.70;;;;;;5053522;28;20535;-65
2022/01/15 13:08:11;;;;;;;9.32;1.88;;;7.90;75.00;;;;;;5044717;28;20051;-67
2022/01/15 13:10:57;;;;;;;13.35;2.90;;;7.90;74.90;;;;;;5051551;28;20480;-70
2022/01/15 13:13:27;;;;;;;14.55;2.50;;;7.90;75.40;;;;;;5058523;28;20113;-69
2022/01/15 13:16:01;;;;;;;18.27;2.60;;;8.00;75.60;;;;;;5051490;28;20047;-69
2022/01/15 13:18:30;;;;;;;15.82;3.35;;;8.00;75.40;;;;;;5050534;28;20043;-66